Time;durP1;ratioP1;P1;durP2;ratioP2;P2;SDS_P1;SDS_P2;PMS_P1;PMS_P2;Temp;Humidity;BMP_temperature;BMP_pressure;BME280_temperature;BME280_humidity;BME280_pressure;Samples;Min_cycle;Max_cycle;Signal;HPM_P1;HPM_P2
2022/05/10 00:00:55;;;;;;;3.15;1.90;;;;;;;27.05;35.47;101794.44;5057147;28;20474;-46
2022/05/10 00:03:25;;;;;;;2.35;1.90;;;;;;;27.05;35.59;101795.31;5074863;28;20534;-41
2022/05/10 00:05:54;;;;;;;3.97;2.25;;;;;;;27.07;35.34;101792.69;5074290;28;20035;-42
2022/05/10 00:08:21;;;;;;;4.05;2.25;;;;;;;27.04;35.28;101788.28;5074660;28;20547;-41
2022/05/10 00:10:50;;;;;;;2.75;1.80;;;;;;;26.97;35.52;101786.44;5073135;28;20028;-46
2022/05/10 00:13:19;;;;;;;1.98;1.75;;;;;;;26.94;35.74;101776.75;5074300;28;20024;-45
2022/05/10 00:15:47;;;;;;;2.78;2.28;;;;;;;26.98;35.60;101783.81;5056015;28;20381;-46
2022/05/10 00:18:17;;;;;;;3.58;2.20;;;;;;;26.98;35.55;101785.56;5056876;28;20122;-43
2022/05/10 00:20:47;;;;;;;3.47;2.13;;;;;;;26.93;35.45;101785.50;5072839;28;20029;-41
2022/05/10 00:23:14;;;;;;;5.05;2.13;;;;;;;26.89;35.34;101773.16;5073521;28;20036;-42
2022/05/10 00:25:43;;;;;;;2.85;1.98;;;;;;;26.89;35.81;101773.16;5072883;28;20031;-43
2022/05/10 00:28:12;;;;;;;2.17;1.73;;;;;;;26.90;35.60;101774.91;5055865;28;20111;-41
2022/05/10 00:30:40;;;;;;;3.40;2.15;;;;;;;26.96;35.39;101777.66;5072791;28;20569;-44
2022/05/10 00:33:13;;;;;;;2.05;1.80;;;;;;;26.99;35.55;101779.41;5056317;28;20029;-42
2022/05/10 00:35:42;;;;;;;2.17;1.90;;;;;;;26.97;35.56;101775.91;5074086;28;20036;-45
2022/05/10 00:38:11;;;;;;;2.58;2.00;;;;;;;26.94;35.36;101776.75;5073493;28;20024;-41
2022/05/10 00:40:39;;;;;;;2.33;1.70;;;;;;;26.95;35.89;101777.63;5072315;28;20021;-41
2022/05/10 00:43:25;;;;;;;4.22;1.95;;;;;;;26.95;35.45;101775.00;5089397;28;20036;-41
2022/05/10 00:46:08;;;;;;;2.85;2.40;;;;;;;26.93;35.31;101774.09;5072465;28;20482;-41
2022/05/10 00:48:59;;;;;;;2.75;1.90;;;;;;;26.95;35.33;101767.09;5072584;28;20033;-43
2022/05/10 00:51:55;;;;;;;3.58;2.40;;;;;;;26.93;35.68;101753.03;5073034;28;20107;-46
2022/05/10 00:54:55;;;;;;;3.80;1.83;;;;;;;26.92;35.61;101757.41;5073726;28;20020;-41
2022/05/10 00:57:32;;;;;;;2.83;2.05;;;;;;;26.90;35.79;101755.63;5073331;28;20024;-41
2022/05/10 01:00:10;;;;;;;3.50;2.20;;;;;;;26.91;35.68;101755.63;5089241;28;20024;-41
2022/05/10 01:02:48;;;;;;;3.05;2.00;;;;;;;26.92;35.51;101754.75;5073361;28;20355;-44
2022/05/10 01:05:26;;;;;;;3.95;2.22;;;;;;;26.88;35.42;101752.09;5073988;28;20394;-45
2022/05/10 01:08:32;;;;;;;2.80;2.50;;;;;;;26.85;35.87;101747.66;5072382;28;20485;-41
2022/05/10 01:11:05;;;;;;;2.22;1.85;;;;;;;26.86;35.91;101752.06;5063804;28;20048;-41
2022/05/10 01:13:40;;;;;;;2.72;2.10;;;;;;;26.88;35.92;101762.59;5073381;28;20039;-45
2022/05/10 01:16:10;;;;;;;3.88;2.67;;;;;;;26.91;35.55;101760.03;5073452;28;20035;-44
2022/05/10 01:18:39;;;;;;;2.80;2.17;;;;;;;26.81;35.97;101754.63;5073484;28;20033;-41
2022/05/10 01:21:30;;;;;;;3.45;2.13;;;;;;;26.90;35.59;101753.84;5073274;28;20020;-45
2022/05/10 01:24:22;;;;;;;3.45;2.63;;;;;;;26.91;35.68;101755.63;5072391;28;20127;-41
2022/05/10 01:27:06;;;;;;;2.95;2.03;;;;;;;26.87;35.75;101756.47;5072197;28;20052;-41
2022/05/10 01:29:54;;;;;;;3.75;2.38;;;;;;;26.83;35.88;101750.25;5072296;28;20021;-41
2022/05/10 01:35:27;;;;;;;2.65;2.00;;;;;;;26.80;35.77;101737.09;5068915;28;20444;-41
2022/05/10 01:38:00;;;;;;;3.05;1.92;;;;;;;26.83;35.78;101744.13;5073284;28;20032;-45
2022/05/10 01:40:40;;;;;;;2.25;1.95;;;;;;;26.81;35.92;101741.47;5072862;28;20047;-43
2022/05/10 01:43:14;;;;;;;3.42;2.60;;;;;;;26.78;35.90;101737.88;5071949;28;20029;-46
2022/05/10 01:46:04;;;;;;;3.05;2.10;;;;;;;26.79;35.88;101735.31;5073169;28;20078;-41
2022/05/10 01:48:36;;;;;;;3.58;2.35;;;;;;;26.79;36.08;101737.94;5073177;28;20021;-42
2022/05/10 01:51:16;;;;;;;2.17;1.80;;;;;;;26.68;36.23;101718.44;5073040;28;20063;-42
2022/05/10 01:53:44;;;;;;;3.58;2.33;;;;;;;26.75;36.04;101719.41;5055272;28;20112;-45
2022/05/10 01:56:34;;;;;;;3.40;2.33;;;;;;;26.77;35.84;101730.84;5071920;28;20444;-44
2022/05/10 01:59:03;;;;;;;2.00;1.80;;;;;;;26.79;35.87;101723.84;5072998;28;20033;-41
2022/05/10 02:01:35;;;;;;;2.75;2.42;;;;;;;26.79;35.77;101729.13;5072806;28;20123;-41
2022/05/10 02:04:16;;;;;;;1.90;1.67;;;;;;;26.80;35.96;101720.38;5075329;28;20078;-47
2022/05/10 02:06:52;;;;;;;2.47;1.80;;;;;;;26.82;35.75;101730.06;5075773;28;20386;-41
2022/05/10 02:09:42;;;;;;;1.98;1.60;;;;;;;26.82;35.76;101730.06;5076003;28;20060;-44
2022/05/10 02:12:15;;;;;;;2.13;1.92;;;;;;;26.77;35.59;101725.56;5070836;28;20106;-44
2022/05/10 02:14:49;;;;;;;3.47;1.90;;;;;;;26.81;35.92;101730.94;5076686;28;20051;-47
2022/05/10 02:17:56;;;;;;;1.63;1.43;;;;;;;26.84;35.77;101723.06;5076783;28;20106;-49
2022/05/10 02:20:48;;;;;;;2.05;1.63;;;;;;;26.82;35.70;101724.81;5073190;28;20044;-45
2022/05/10 02:23:22;;;;;;;1.73;1.63;;;;;;;26.77;35.74;101715.94;5072643;28;20052;-45
2022/05/10 02:25:58;;;;;;;1.77;1.50;;;;;;;26.74;35.75;101709.75;5076205;28;20021;-44
2022/05/10 02:28:46;;;;;;;1.40;1.30;;;;;;;26.80;35.74;101715.13;5076451;28;20029;-49
2022/05/10 02:31:23;;;;;;;2.17;1.75;;;;;;;26.78;35.67;101722.09;5076177;28;20451;-50
2022/05/10 02:33:52;;;;;;;1.80;1.60;;;;;;;26.80;35.77;101717.75;5074762;28;20029;-47
2022/05/10 02:36:20;;;;;;;1.90;1.65;;;;;;;26.72;35.92;101708.88;5075215;28;20082;-46
2022/05/10 02:38:49;;;;;;;2.03;1.60;;;;;;;26.77;35.69;101709.78;5076073;28;20025;-45
2022/05/10 02:41:23;;;;;;;1.70;1.60;;;;;;;26.79;35.74;101700.16;5074653;28;20037;-50
2022/05/10 02:43:57;;;;;;;2.47;1.60;;;;;;;26.75;35.63;101701.88;5076163;28;20089;-46
2022/05/10 02:46:26;;;;;;;1.33;1.20;;;;;;;26.73;35.73;101708.88;5091782;28;20025;-44
2022/05/10 02:48:55;;;;;;;1.63;1.48;;;;;;;26.71;35.79;101709.72;5076464;28;20040;-44
2022/05/10 02:51:23;;;;;;;1.50;1.40;;;;;;;26.71;35.79;101704.47;5076191;28;20032;-44
2022/05/10 02:53:52;;;;;;;1.30;1.20;;;;;;;26.66;35.98;101699.09;5076020;28;20032;-49
2022/05/10 02:56:24;;;;;;;1.50;1.40;;;;;;;26.67;35.96;101698.25;5075950;28;20557;-47
2022/05/10 02:58:59;;;;;;;1.30;1.20;;;;;;;26.63;35.91;101702.59;5074624;28;20032;-45
2022/05/10 03:01:51;;;;;;;1.70;1.23;;;;;;;26.68;35.95;101703.56;5075796;28;20031;-47
2022/05/10 03:04:20;;;;;;;1.20;1.10;;;;;;;26.54;35.66;101676.16;5071896;28;20032;-47
2022/05/10 03:06:48;;;;;;;1.67;1.48;;;;;;;26.66;35.91;101702.63;5075794;28;20020;-44
2022/05/10 03:09:17;;;;;;;1.55;1.27;;;;;;;26.60;35.74;101691.16;5075418;28;20056;-42
2022/05/10 03:11:46;;;;;;;3.03;1.35;;;;;;;26.63;35.71;101688.56;5075693;28;20485;-49
2022/05/10 03:14:14;;;;;;;1.90;1.23;;;;;;;26.63;35.76;101683.31;5074515;28;20083;-48
2022/05/10 03:16:42;;;;;;;1.50;1.30;;;;;;;26.65;35.70;101686.81;5075596;28;20019;-49
2022/05/10 03:19:10;;;;;;;1.20;1.10;;;;;;;26.64;35.53;101682.44;5075900;28;20115;-46
2022/05/10 03:21:40;;;;;;;1.63;1.25;;;;;;;26.64;35.47;101674.56;5074895;28;20044;-43
2022/05/10 03:24:08;;;;;;;1.60;0.93;;;;;;;26.61;35.41;101669.25;5075225;28;20038;-52
2022/05/10 03:26:39;;;;;;;0.98;0.90;;;;;;;26.64;35.62;101667.53;5075375;28;20072;-48
2022/05/10 03:29:08;;;;;;;1.40;1.25;;;;;;;26.58;35.69;101677.09;5057682;28;20485;-48
2022/05/10 03:31:36;;;;;;;1.42;0.95;;;;;;;26.64;35.67;101677.19;5075244;28;20028;-46
2022/05/10 03:36:52;;;;;;;1.08;0.98;;;;;;;26.64;35.42;101667.53;5071000;28;20558;-42
2022/05/10 03:39:20;;;;;;;1.30;0.90;;;;;;;26.59;35.33;101677.09;5075153;28;20358;-42
2022/05/10 03:41:49;;;;;;;1.10;1.00;;;;;;;26.57;35.34;101680.59;5075026;28;20032;-50
2022/05/10 03:44:17;;;;;;;1.10;1.00;;;;;;;26.59;35.33;101684.13;5074976;28;20131;-44
2022/05/10 03:46:45;;;;;;;0.73;0.73;;;;;;;26.52;35.50;101677.91;5074799;28;20103;-42
2022/05/10 03:49:16;;;;;;;2.15;1.38;;;;;;;26.54;35.20;101677.03;5074839;28;20037;-46
2022/05/10 03:51:45;;;;;;;1.02;0.93;;;;;;;26.57;35.38;101672.69;5074668;28;20064;-41
2022/05/10 03:54:13;;;;;;;0.80;0.80;;;;;;;26.53;35.15;101675.28;5074278;28;20036;-47
2022/05/10 03:56:42;;;;;;;1.05;0.95;;;;;;;26.52;35.10;101677.91;5074675;28;20099;-43
2022/05/10 03:59:10;;;;;;;0.70;0.70;;;;;;;26.35;35.10;101644.34;5090351;28;20364;-47
2022/05/10 04:01:39;;;;;;;1.75;0.80;;;;;;;26.48;35.22;101669.06;5074492;28;20028;-44
2022/05/10 04:04:07;;;;;;;0.90;0.77;;;;;;;26.41;35.43;101656.69;5073175;28;20031;-48
2022/05/10 04:06:36;;;;;;;0.70;0.70;;;;;;;26.46;35.53;101662.00;5074513;28;20027;-44
2022/05/10 04:09:05;;;;;;;1.20;0.80;;;;;;;26.46;35.59;101660.28;5075931;28;20044;-42
2022/05/10 04:11:34;;;;;;;0.80;0.80;;;;;;;26.41;35.47;101664.59;5072785;28;20089;-49
2022/05/10 04:14:03;;;;;;;0.60;0.60;;;;;;;26.40;35.51;101660.19;5074345;28;20381;-45
2022/05/10 04:16:31;;;;;;;1.70;0.90;;;;;;;26.33;35.26;101648.69;5074640;28;20030;-44
2022/05/10 04:19:00;;;;;;;0.70;0.70;;;;;;;26.39;35.22;101655.78;5074415;28;20059;-44
2022/05/10 04:21:29;;;;;;;0.75;0.60;;;;;;;26.43;35.27;101670.75;5074433;28;20048;-51
2022/05/10 04:23:57;;;;;;;1.40;0.93;;;;;;;26.45;34.95;101661.16;5073139;28;20039;-50
2022/05/10 04:26:26;;;;;;;0.75;0.75;;;;;;;26.41;35.17;101654.06;5074023;28;20090;-46
2022/05/10 04:28:54;;;;;;;0.65;0.50;;;;;;;26.44;35.01;101666.38;5073989;28;20048;-45
2022/05/10 04:31:23;;;;;;;1.73;0.70;;;;;;;26.43;34.98;101672.50;5074115;28;20071;-44
2022/05/10 04:33:51;;;;;;;0.70;0.70;;;;;;;26.44;34.85;101676.88;5072595;28;20028;-42
2022/05/10 04:36:23;;;;;;;0.70;0.70;;;;;;;26.43;34.91;101675.13;5073015;28;20035;-42
2022/05/10 04:38:51;;;;;;;0.75;0.75;;;;;;;26.23;35.02;101645.06;5073732;28;20457;-44
2022/05/10 04:41:24;;;;;;;0.98;0.90;;;;;;;26.36;34.98;101668.91;5073803;28;20031;-50
2022/05/10 04:43:58;;;;;;;1.05;0.70;;;;;;;26.35;34.92;101664.50;5072730;28;20036;-44
2022/05/10 04:46:27;;;;;;;1.00;0.90;;;;;;;26.33;35.20;101672.38;5073697;28;20047;-48
2022/05/10 04:48:55;;;;;;;0.70;0.70;;;;;;;26.31;35.10;101676.72;5073921;28;20064;-50
2022/05/10 04:51:24;;;;;;;1.02;0.90;;;;;;;26.29;35.00;101667.94;5073441;28;20025;-44
2022/05/10 04:53:53;;;;;;;0.75;0.70;;;;;;;26.30;35.06;101672.31;5073775;28;20031;-51
2022/05/10 04:56:22;;;;;;;0.70;0.70;;;;;;;26.34;34.94;101681.13;5072455;28;20482;-44
2022/05/10 04:58:54;;;;;;;0.82;0.82;;;;;;;26.37;34.83;101683.81;5089299;28;20069;-49
2022/05/10 05:01:26;;;;;;;0.70;0.60;;;;;;;26.35;34.93;101682.91;5073914;28;20452;-43
2022/05/10 05:03:56;;;;;;;0.60;0.60;;;;;;;26.33;34.81;101685.53;5073604;28;20031;-46
2022/05/10 05:06:25;;;;;;;0.73;0.70;;;;;;;26.33;34.83;101682.91;5073453;28;20025;-43
2022/05/10 05:08:54;;;;;;;0.70;0.70;;;;;;;26.33;34.69;101682.91;5073582;28;20481;-45
2022/05/10 05:11:23;;;;;;;1.40;0.80;;;;;;;26.27;34.96;101687.19;5073726;28;20024;-45
2022/05/10 05:13:51;;;;;;;0.98;0.60;;;;;;;26.27;34.55;101684.56;5073556;28;20035;-43
2022/05/10 05:16:20;;;;;;;0.82;0.73;;;;;;;26.31;34.79;101686.38;5073525;28;20051;-43
2022/05/10 05:18:49;;;;;;;0.50;0.50;;;;;;;26.27;34.69;101690.69;5072815;28;20154;-48
2022/05/10 05:21:17;;;;;;;1.27;0.70;;;;;;;26.30;34.68;101692.50;5073051;28;20438;-46
2022/05/10 05:23:46;;;;;;;0.65;0.60;;;;;;;26.35;34.54;101696.97;5073453;28;20029;-53
2022/05/10 05:26:15;;;;;;;0.60;0.60;;;;;;;26.17;34.64;101676.50;5071415;28;20036;-51
2022/05/10 05:28:43;;;;;;;0.60;0.60;;;;;;;26.30;34.81;101692.50;5073328;28;20036;-42
2022/05/10 05:31:14;;;;;;;0.77;0.57;;;;;;;26.26;34.82;101699.44;5088738;28;20064;-42
2022/05/10 05:33:42;;;;;;;0.70;0.70;;;;;;;26.29;34.45;101701.25;5071615;28;20111;-47
2022/05/10 05:36:11;;;;;;;0.95;0.60;;;;;;;26.36;34.40;101705.72;5073109;28;20386;-42
2022/05/10 05:38:40;;;;;;;0.60;0.60;;;;;;;26.39;34.41;101705.78;5072739;28;20021;-41
2022/05/10 05:41:08;;;;;;;1.20;0.50;;;;;;;26.42;34.38;101716.34;5073408;28;20028;-42
2022/05/10 05:43:37;;;;;;;1.17;0.57;;;;;;;26.40;34.49;101699.66;5073020;28;20035;-42
2022/05/10 05:46:05;;;;;;;1.80;0.60;;;;;;;26.44;34.33;101690.03;5072868;28;20044;-42
2022/05/10 05:48:34;;;;;;;0.60;0.60;;;;;;;26.62;34.07;101708.72;5072903;28;20028;-51
2022/05/10 05:51:03;;;;;;;3.05;1.35;;;;;;;26.66;34.46;101707.91;5072691;28;20035;-42
2022/05/10 05:53:32;;;;;;;0.77;0.77;;;;;;;26.72;34.22;101716.75;5072988;28;20478;-43
2022/05/10 05:56:03;;;;;;;0.88;0.80;;;;;;;26.78;34.08;101708.91;5073153;28;20029;-42
2022/05/10 05:58:31;;;;;;;1.38;0.98;;;;;;;26.82;34.25;101703.75;5073548;28;20075;-47
2022/05/10 06:01:00;;;;;;;3.65;1.02;;;;;;;26.85;34.17;101702.91;5071801;28;20032;-47
2022/05/10 06:03:28;;;;;;;1.23;1.13;;;;;;;26.82;34.13;101708.13;5072299;28;20107;-42
2022/05/10 06:05:57;;;;;;;1.45;1.25;;;;;;;26.83;34.31;101696.75;5073490;28;20527;-44
2022/05/10 06:08:25;;;;;;;3.45;1.52;;;;;;;26.88;34.24;101704.69;5073708;28;20027;-42
2022/05/10 06:10:55;;;;;;;6.80;2.13;;;;;;;26.86;34.51;101704.69;5073136;28;20020;-45
2022/05/10 06:13:24;;;;;;;3.95;1.70;;;;;;;26.89;34.31;101702.06;5072376;28;20020;-48
2022/05/10 06:15:52;;;;;;;6.55;1.70;;;;;;;26.85;34.54;101702.91;5073138;28;20028;-43
2022/05/10 06:18:21;;;;;;;6.13;1.65;;;;;;;26.85;34.67;101708.19;5073049;28;20025;-48
2022/05/10 06:20:49;;;;;;;3.20;1.50;;;;;;;26.86;34.91;101711.69;5072793;28;20054;-42
2022/05/10 06:23:18;;;;;;;5.53;1.50;;;;;;;26.92;34.84;101715.28;5071638;28;20045;-45
2022/05/10 06:25:46;;;;;;;7.20;1.55;;;;;;;26.96;34.83;101724.97;5072680;28;20032;-47
2022/05/10 06:28:15;;;;;;;7.60;1.55;;;;;;;26.97;34.72;101726.75;5072773;28;20111;-43
2022/05/10 06:30:45;;;;;;;1.48;1.20;;;;;;;26.98;34.85;101720.63;5073337;28;20025;-42
2022/05/10 06:33:14;;;;;;;4.28;1.60;;;;;;;27.07;34.86;101716.31;5072858;28;20123;-48
2022/05/10 06:35:44;;;;;;;2.22;1.50;;;;;;;27.09;34.79;101717.22;5073239;28;20039;-42
2022/05/10 06:38:27;;;;;;;6.20;1.60;;;;;;;27.06;35.12;101711.91;5072834;28;20060;-44
2022/05/10 06:40:56;;;;;;;5.00;1.40;;;;;;;27.11;35.08;101708.50;5072767;28;20028;-47
2022/05/10 06:43:24;;;;;;;2.17;1.10;;;;;;;27.13;35.26;101712.03;5072630;28;20021;-42
2022/05/10 06:45:57;;;;;;;1.58;1.10;;;;;;;27.25;34.87;101715.66;5072887;28;20036;-43
2022/05/10 06:48:25;;;;;;;2.78;1.40;;;;;;;27.29;34.95;101710.44;5071623;28;20036;-43
2022/05/10 06:50:54;;;;;;;8.63;1.40;;;;;;;27.34;34.86;101710.47;5074192;28;20029;-45
2022/05/10 06:53:21;;;;;;;2.10;1.20;;;;;;;27.37;34.88;101707.88;5075742;28;20420;-45
2022/05/10 06:55:49;;;;;;;2.58;1.00;;;;;;;27.46;34.81;101724.69;5075917;28;20031;-49
2022/05/10 06:58:17;;;;;;;2.90;1.27;;;;;;;27.49;34.79;101720.34;5075981;28;20025;-42
2022/05/10 07:00:45;;;;;;;5.85;1.35;;;;;;;27.50;34.89;101715.94;5075805;28;20034;-45
2022/05/10 07:03:16;;;;;;;2.90;1.10;;;;;;;27.51;35.06;101715.97;5091490;28;20062;-42
2022/05/10 07:05:46;;;;;;;3.00;1.20;;;;;;;27.57;35.04;101715.13;5075743;28;20410;-43
2022/05/10 07:08:14;;;;;;;3.92;1.17;;;;;;;27.52;34.93;101712.47;5076143;28;20108;-44
2022/05/10 07:10:42;;;;;;;3.08;1.00;;;;;;;27.59;34.99;101730.09;5075778;28;20029;-43
2022/05/10 07:13:14;;;;;;;2.17;0.90;;;;;;;27.63;35.08;101722.22;5075263;28;20078;-42
2022/05/10 07:15:44;;;;;;;1.98;0.88;;;;;;;27.63;35.10;101715.22;5075116;28;20543;-44
2022/05/10 07:18:12;;;;;;;2.15;0.80;;;;;;;27.69;34.96;101725.78;5075132;28;20025;-50
2022/05/10 07:20:42;;;;;;;3.53;1.00;;;;;;;27.71;35.06;101734.59;5074420;28;20025;-51
2022/05/10 07:23:11;;;;;;;3.35;0.90;;;;;;;27.74;35.22;101731.09;5075494;28;20052;-44
2022/05/10 07:25:39;;;;;;;2.67;0.82;;;;;;;27.80;35.04;101727.66;5075218;28;20052;-43
2022/05/10 07:28:08;;;;;;;1.50;0.98;;;;;;;27.79;35.14;101710.06;5075382;28;20660;-42
2022/05/10 07:30:36;;;;;;;2.10;0.88;;;;;;;27.84;35.14;101724.16;5075367;28;20039;-46
2022/05/10 07:33:04;;;;;;;2.08;1.05;;;;;;;27.74;35.14;101700.38;5075289;28;20141;-49
2022/05/10 07:38:21;;;;;;;2.03;1.02;;;;;;;27.94;35.01;101731.28;5074545;28;20375;-42
2022/05/10 07:40:50;;;;;;;1.67;0.70;;;;;;;27.96;34.97;101726.03;5075148;28;20461;-50
2022/05/10 07:43:19;;;;;;;3.42;0.98;;;;;;;28.00;35.01;101730.47;5075252;28;20052;-43
2022/05/10 07:45:49;;;;;;;1.80;1.02;;;;;;;28.00;34.88;101715.50;5075029;28;20021;-42
2022/05/10 07:48:17;;;;;;;2.05;0.90;;;;;;;28.04;34.98;101719.06;5073275;28;20027;-42
2022/05/10 07:50:46;;;;;;;1.77;0.77;;;;;;;28.06;34.82;101727.84;5072946;28;20071;-51
2022/05/10 07:53:15;;;;;;;3.95;1.02;;;;;;;28.07;34.80;101726.09;5074931;28;20043;-50
2022/05/10 07:55:44;;;;;;;1.15;0.80;;;;;;;28.12;34.63;101729.72;5075287;28;20029;-45
2022/05/10 07:58:13;;;;;;;3.40;0.98;;;;;;;28.15;34.71;101721.78;5074711;28;20025;-41
2022/05/10 08:00:42;;;;;;;1.70;0.60;;;;;;;28.17;34.65;101720.94;5074376;28;20043;-45
2022/05/10 08:03:13;;;;;;;1.98;0.85;;;;;;;28.19;34.36;101716.56;5074953;28;20123;-43
2022/05/10 08:05:42;;;;;;;2.75;1.38;;;;;;;28.22;34.33;101710.41;5074772;28;20422;-45
2022/05/10 08:08:12;;;;;;;2.42;0.73;;;;;;;28.24;34.54;101721.88;5074894;28;20024;-42
2022/05/10 08:10:42;;;;;;;1.85;0.70;;;;;;;28.25;34.34;101721.00;5074448;28;20020;-45
2022/05/10 08:13:15;;;;;;;4.03;1.00;;;;;;;28.28;34.33;101723.66;5074337;28;20037;-50
2022/05/10 08:15:44;;;;;;;2.47;0.73;;;;;;;28.31;34.05;101721.03;5074379;28;20031;-42
2022/05/10 08:18:14;;;;;;;3.85;0.85;;;;;;;28.33;34.01;101728.97;5074259;28;20033;-51
2022/05/10 08:20:43;;;;;;;2.20;0.90;;;;;;;28.35;34.04;101724.59;5073224;28;20021;-42
2022/05/10 08:23:15;;;;;;;3.55;0.77;;;;;;;28.33;34.06;101721.06;5073701;28;20084;-49
2022/05/10 08:25:44;;;;;;;1.30;1.00;;;;;;;28.38;33.84;101721.06;5073345;28;20484;-43
2022/05/10 08:28:13;;;;;;;4.10;0.90;;;;;;;28.38;33.98;101723.72;5074046;28;20429;-47
2022/05/10 08:30:46;;;;;;;1.50;0.70;;;;;;;28.47;33.91;101731.66;5074132;28;20124;-44
2022/05/10 08:33:26;;;;;;;1.30;0.80;;;;;;;28.44;34.01;101721.13;5072751;28;20025;-51
2022/05/10 08:35:56;;;;;;;4.15;0.90;;;;;;;28.48;33.72;101717.59;5074114;28;20108;-47
2022/05/10 08:38:25;;;;;;;1.65;0.80;;;;;;;28.48;33.61;101712.31;5073716;28;20452;-42
2022/05/10 08:40:59;;;;;;;4.10;1.02;;;;;;;28.50;33.81;101715.84;5073484;28;20394;-46
2022/05/10 08:43:33;;;;;;;1.70;0.77;;;;;;;28.53;33.90;101715.00;5074211;28;20016;-42
2022/05/10 08:46:03;;;;;;;2.15;0.80;;;;;;;28.50;33.46;101711.47;5072734;28;20496;-48
2022/05/10 08:48:32;;;;;;;1.38;0.90;;;;;;;28.57;33.75;101720.31;5056347;28;20128;-42
2022/05/10 08:51:03;;;;;;;3.40;0.73;;;;;;;28.57;33.78;101716.78;5073896;28;20111;-48
2022/05/10 08:53:32;;;;;;;2.22;0.80;;;;;;;28.62;33.50;101722.97;5072736;28;20059;-44
2022/05/10 08:56:21;;;;;;;3.67;0.95;;;;;;;28.66;33.67;101730.03;5073801;28;20373;-45
2022/05/10 08:59:13;;;;;;;2.70;1.00;;;;;;;28.67;33.53;101731.81;5071907;28;20029;-49
2022/05/10 09:02:04;;;;;;;2.78;0.70;;;;;;;28.72;33.39;101730.03;5073423;28;20029;-42
2022/05/10 09:04:54;;;;;;;1.58;0.88;;;;;;;28.74;33.32;101732.75;5073860;28;20029;-48
2022/05/10 09:07:48;;;;;;;2.17;0.70;;;;;;;28.75;33.51;101735.38;5073579;28;20440;-42
2022/05/10 09:10:20;;;;;;;1.75;0.70;;;;;;;28.83;33.25;101732.78;5069883;28;20173;-45
2022/05/10 09:13:03;;;;;;;3.53;0.93;;;;;;;28.82;33.39;101731.00;5072943;28;20029;-46
2022/05/10 09:15:36;;;;;;;2.40;0.88;;;;;;;28.79;33.21;101728.38;5073517;28;20028;-42
2022/05/10 09:18:25;;;;;;;3.65;0.77;;;;;;;28.84;33.39;101736.31;5073516;28;20021;-51
2022/05/10 09:20:59;;;;;;;1.33;0.77;;;;;;;28.85;33.16;101738.94;5072117;28;20028;-48
2022/05/10 09:23:46;;;;;;;2.03;0.90;;;;;;;28.86;32.85;101729.28;5072957;28;20045;-45
2022/05/10 09:26:15;;;;;;;4.78;0.90;;;;;;;28.82;32.99;101719.59;5072231;28;20077;-43
2022/05/10 09:29:09;;;;;;;2.15;0.70;;;;;;;28.88;33.03;101709.91;5073005;28;20028;-47
2022/05/10 09:34:50;;;;;;;2.22;0.93;;;;;;;28.93;32.48;101710.84;5069437;28;20033;-41
2022/05/10 09:37:30;;;;;;;3.35;0.82;;;;;;;28.88;33.12;101696.72;5073084;28;20128;-46
2022/05/10 09:39:59;;;;;;;2.85;0.68;;;;;;;28.98;32.76;101709.94;5073029;28;20398;-49
2022/05/10 09:42:31;;;;;;;1.30;0.80;;;;;;;29.00;32.65;101713.47;5073121;28;20056;-42
2022/05/10 09:45:02;;;;;;;1.08;0.60;;;;;;;28.99;32.71;101707.31;5073605;28;20458;-43
2022/05/10 09:47:30;;;;;;;0.85;0.60;;;;;;;29.02;32.48;101704.69;5072894;28;20107;-44
2022/05/10 09:50:19;;;;;;;1.05;0.60;;;;;;;29.08;32.56;101709.97;5072122;28;20488;-43
2022/05/10 09:52:48;;;;;;;1.88;0.70;;;;;;;29.07;32.31;101702.06;5072912;28;20029;-50
2022/05/10 09:55:26;;;;;;;2.63;0.80;;;;;;;29.06;32.57;101713.50;5073301;28;20374;-44
2022/05/10 09:57:59;;;;;;;1.67;0.82;;;;;;;29.13;32.40;101707.34;5073332;28;20025;-42
2022/05/10 10:00:52;;;;;;;1.13;0.82;;;;;;;29.17;32.81;101708.25;5072992;28;20074;-51
2022/05/10 10:03:27;;;;;;;4.93;1.00;;;;;;;29.12;32.93;101705.63;5072800;28;20036;-46
2022/05/10 10:05:57;;;;;;;4.63;1.13;;;;;;;29.10;32.67;101712.66;5072934;28;20040;-47
2022/05/10 10:08:40;;;;;;;3.35;0.80;;;;;;;29.16;32.69;101709.13;5073014;28;20120;-51
2022/05/10 10:11:15;;;;;;;2.92;1.02;;;;;;;29.20;32.81;101708.28;5072679;28;20485;-42
2022/05/10 10:13:43;;;;;;;2.92;1.13;;;;;;;29.23;32.66;101713.53;5072948;28;20021;-51
2022/05/10 10:16:17;;;;;;;3.15;1.10;;;;;;;29.20;32.92;101718.84;5071192;28;20406;-51
2022/05/10 10:18:47;;;;;;;3.17;0.90;;;;;;;29.25;33.04;101715.31;5071200;28;20094;-52
2022/05/10 10:21:20;;;;;;;4.35;1.20;;;;;;;29.18;33.15;101707.38;5072070;28;20024;-45
2022/05/10 10:23:59;;;;;;;6.72;1.25;;;;;;;29.20;32.98;101717.06;5072901;28;20036;-48
2022/05/10 10:26:27;;;;;;;2.67;1.33;;;;;;;29.24;33.00;101710.03;5076434;28;20359;-48
2022/05/10 10:29:03;;;;;;;5.93;1.38;;;;;;;29.18;32.83;101707.38;5076548;28;20390;-52
2022/05/10 10:31:36;;;;;;;5.40;1.15;;;;;;;29.23;33.09;101709.16;5076399;28;20024;-44
2022/05/10 10:34:19;;;;;;;1.67;0.80;;;;;;;29.14;32.97;101714.41;5075310;28;20039;-42
2022/05/10 10:37:04;;;;;;;3.25;1.10;;;;;;;29.12;33.10;101710.91;5076511;28;20055;-48
2022/05/10 10:39:53;;;;;;;2.95;1.20;;;;;;;29.11;33.07;101711.78;5076779;28;20104;-44
2022/05/10 10:42:30;;;;;;;2.70;1.00;;;;;;;29.09;32.85;101709.09;5074703;28;20033;-44
2022/05/10 10:45:00;;;;;;;3.35;1.20;;;;;;;29.10;33.00;101702.09;5076329;28;20054;-43
2022/05/10 10:47:35;;;;;;;1.35;0.80;;;;;;;29.09;32.93;101708.25;5076234;28;20017;-46
2022/05/10 10:50:11;;;;;;;4.43;1.02;;;;;;;29.15;32.77;101713.53;5076306;28;20028;-50
2022/05/10 10:52:39;;;;;;;3.40;1.23;;;;;;;29.14;32.70;101709.13;5076140;28;20504;-43
2022/05/10 10:55:08;;;;;;;1.83;0.80;;;;;;;29.11;32.90;101712.63;5074359;28;20122;-42
2022/05/10 10:57:58;;;;;;;4.68;1.00;;;;;;;29.14;32.82;101710.88;5075890;28;20032;-43
2022/05/10 11:00:34;;;;;;;3.65;1.00;;;;;;;29.10;32.83;101710.88;5071409;28;20039;-49
2022/05/10 11:03:08;;;;;;;2.05;1.02;;;;;;;29.11;32.60;101706.50;5074831;28;20555;-43
2022/05/10 11:06:03;;;;;;;2.13;1.17;;;;;;;29.12;32.60;101700.31;5075648;28;20038;-46
2022/05/10 11:08:31;;;;;;;3.67;1.00;;;;;;;29.15;32.80;101707.38;5071802;28;20274;-44
2022/05/10 11:11:01;;;;;;;2.97;1.10;;;;;;;29.07;33.02;101707.34;5075919;28;20494;-42
2022/05/10 11:13:46;;;;;;;3.15;1.38;;;;;;;29.06;33.21;101703.81;5075685;28;20470;-49
2022/05/10 11:16:42;;;;;;;4.75;1.95;;;;;;;29.07;33.04;101707.34;5075460;28;20032;-53
2022/05/10 11:19:09;;;;;;;;;;;;;;;29.17;33.02;101705.63;5076046;28;20036;-52
2022/05/10 11:22:02;;;;;;;3.55;1.30;;;;;;;29.08;33.28;101701.19;5075389;28;19923;-42
2022/05/10 11:24:40;;;;;;;2.05;1.00;;;;;;;29.09;33.43;101708.25;5075721;28;20025;-46
2022/05/10 11:27:21;;;;;;;5.32;1.45;;;;;;;29.01;33.50;101705.56;5074333;28;20048;-44
2022/05/10 11:30:14;;;;;;;1.85;0.90;;;;;;;29.02;33.56;101703.81;5074242;28;20028;-44
2022/05/10 11:33:05;;;;;;;3.58;1.48;;;;;;;29.05;33.58;101707.31;5075255;28;20016;-51
2022/05/10 11:35:57;;;;;;;4.97;1.02;;;;;;;29.09;33.33;101705.59;5074375;28;20037;-48
2022/05/10 11:38:28;;;;;;;1.92;0.85;;;;;;;29.11;33.36;101704.72;5072755;28;20041;-43
2022/05/10 11:41:15;;;;;;;3.17;1.15;;;;;;;29.06;33.29;101698.53;5075218;28;20019;-51
2022/05/10 11:44:04;;;;;;;3.22;1.20;;;;;;;29.07;33.66;101700.28;5075214;28;20107;-48
2022/05/10 11:47:04;;;;;;;3.33;1.13;;;;;;;29.13;33.21;101703.84;5073422;28;20028;-43
2022/05/10 11:49:36;;;;;;;2.33;1.15;;;;;;;29.08;33.22;101709.13;5072555;28;20085;-43
2022/05/10 11:52:13;;;;;;;2.65;0.80;;;;;;;28.98;33.49;101707.31;5073882;28;20358;-43
2022/05/10 11:55:03;;;;;;;3.78;1.00;;;;;;;28.95;33.22;101703.81;5074867;28;20054;-42
2022/05/10 11:57:34;;;;;;;3.28;0.90;;;;;;;28.99;33.54;101696.75;5074354;28;20033;-48
2022/05/10 12:00:38;;;;;;;3.40;1.48;;;;;;;29.04;33.50;101696.78;5069036;28;20029;-45
2022/05/10 12:03:12;;;;;;;2.42;0.93;;;;;;;29.06;33.62;101700.31;5050288;28;20036;-46
2022/05/10 12:05:41;;;;;;;2.60;1.20;;;;;;;29.07;33.59;101699.44;5051337;28;20039;-46